Time;durP1;ratioP1;P1;durP2;ratioP2;P2;SDS_P1;SDS_P2;PMS_P1;PMS_P2;Temp;Humidity;BMP_temperature;BMP_pressure;BME280_temperature;BME280_humidity;BME280_pressure;Samples;Min_cycle;Max_cycle;Signal;HPM_P1;HPM_P2
2023/08/06 00:02:06;;;;;;;9.38;6.35;;;;;;;;;;4984907;28;20113;-61
2023/08/06 00:04:32;;;;;;;9.90;6.63;;;;;;;;;;4996680;28;20121;-61
2023/08/06 00:06:58;;;;;;;7.45;5.50;;;;;;;;;;5002252;28;20060;-62
2023/08/06 00:09:24;;;;;;;8.18;6.15;;;;;;;;;;4997687;28;20129;-61
2023/08/06 00:11:50;;;;;;;9.00;6.32;;;;;;;;;;4998697;28;20050;-61
2023/08/06 00:14:17;;;;;;;9.07;6.47;;;;;;;;;;4970487;28;20497;-61
2023/08/06 00:16:44;;;;;;;10.25;5.97;;;;;;;;;;4966484;28;20034;-61
2023/08/06 00:19:10;;;;;;;8.45;5.88;;;;;;;;;;4996053;28;20046;-62
2023/08/06 00:21:36;;;;;;;8.82;6.20;;;;;;;;;;4990098;28;20044;-61
2023/08/06 00:24:02;;;;;;;9.13;6.50;;;;;;;;;;4970633;28;20077;-61
2023/08/06 00:26:28;;;;;;;8.00;5.90;;;;;;;;;;4966610;28;20070;-61
2023/08/06 00:28:54;;;;;;;12.40;6.97;;;;;;;;;;4987957;28;20050;-60
2023/08/06 00:31:20;;;;;;;7.38;5.20;;;;;;;;;;4969784;28;20191;-61
2023/08/06 00:33:47;;;;;;;7.88;5.75;;;;;;;;;;4969406;28;20050;-61
2023/08/06 00:36:13;;;;;;;7.32;6.07;;;;;;;;;;4987529;28;20369;-61
2023/08/06 00:38:39;;;;;;;7.47;5.70;;;;;;;;;;4989562;28;20383;-61
2023/08/06 00:41:05;;;;;;;8.68;5.35;;;;;;;;;;4987167;28;20506;-61
2023/08/06 00:43:31;;;;;;;9.45;5.93;;;;;;;;;;4985994;28;20547;-61
2023/08/06 00:45:57;;;;;;;7.80;5.78;;;;;;;;;;4984797;28;20042;-61
2023/08/06 00:48:23;;;;;;;6.50;5.47;;;;;;;;;;4979007;28;20089;-63
2023/08/06 00:50:50;;;;;;;8.40;5.47;;;;;;;;;;4969876;28;20440;-62
2023/08/06 00:53:16;;;;;;;7.68;5.65;;;;;;;;;;4979949;28;20038;-62
2023/08/06 00:55:45;;;;;;;8.43;6.20;;;;;;;;;;4986775;28;20546;-62
2023/08/06 00:58:11;;;;;;;6.53;4.82;;;;;;;;;;4972843;28;20489;-62
2023/08/06 01:00:37;;;;;;;7.55;5.63;;;;;;;;;;4986821;28;20176;-62
2023/08/06 01:03:04;;;;;;;6.97;5.40;;;;;;;;;;4986418;28;20045;-62
2023/08/06 01:05:30;;;;;;;8.63;6.38;;;;;;;;;;4988112;28;20038;-62
2023/08/06 01:08:05;;;;;;;8.25;5.47;;;;;;;;;;4993581;28;20631;-62
2023/08/06 01:10:37;;;;;;;11.05;6.45;;;;;;;;;;4988113;28;20490;-62
2023/08/06 01:13:09;;;;;;;9.68;4.82;;;;;;;;;;4987303;28;20057;-62
2023/08/06 01:15:47;;;;;;;11.48;6.88;;;;;;;;;;4982808;28;20038;-62
2023/08/06 01:18:13;;;;;;;9.45;5.75;;;;;;;;;;4983157;28;20362;-62
2023/08/06 01:20:39;;;;;;;7.60;5.90;;;;;;;;;;4985976;28;20447;-63
2023/08/06 01:23:06;;;;;;;9.70;5.97;;;;;;;;;;4985215;28;20034;-62
2023/08/06 01:25:53;;;;;;;10.70;6.65;;;;;;;;;;4968536;28;20564;-62
2023/08/06 01:28:39;;;;;;;8.40;6.13;;;;;;;;;;4965364;28;20057;-62
2023/08/06 01:31:06;;;;;;;8.05;6.50;;;;;;;;;;4977094;28;20043;-62
2023/08/06 01:33:33;;;;;;;9.80;6.25;;;;;;;;;;4994666;28;20232;-61
2023/08/06 01:35:59;;;;;;;8.48;6.85;;;;;;;;;;4987608;28;20108;-62
2023/08/06 01:38:28;;;;;;;7.97;6.32;;;;;;;;;;4987987;28;20057;-62
2023/08/06 01:40:54;;;;;;;7.25;5.88;;;;;;;;;;4987383;28;20524;-62
2023/08/06 01:43:20;;;;;;;7.72;6.35;;;;;;;;;;4986801;28;20050;-62
2023/08/06 01:45:46;;;;;;;9.40;6.50;;;;;;;;;;4969075;28;20049;-62
2023/08/06 01:48:12;;;;;;;7.18;6.13;;;;;;;;;;4982750;28;20402;-62
2023/08/06 01:50:38;;;;;;;8.32;6.03;;;;;;;;;;4968192;28;20098;-62
2023/08/06 01:53:04;;;;;;;8.63;6.38;;;;;;;;;;4986964;28;20512;-62
2023/08/06 01:55:30;;;;;;;9.73;6.45;;;;;;;;;;4985326;28;20058;-62
2023/08/06 01:57:56;;;;;;;10.90;6.93;;;;;;;;;;4974327;28;20509;-62
2023/08/06 02:00:23;;;;;;;7.75;5.80;;;;;;;;;;4978992;28;20274;-62
2023/08/06 02:02:50;;;;;;;9.60;6.43;;;;;;;;;;4984281;28;20038;-62
2023/08/06 02:05:16;;;;;;;9.98;6.75;;;;;;;;;;4986470;28;20493;-63
2023/08/06 02:07:42;;;;;;;6.72;5.90;;;;;;;;;;4952789;28;20520;-62
2023/08/06 02:10:09;;;;;;;8.18;6.35;;;;;;;;;;4981018;28;20061;-62
2023/08/06 02:12:35;;;;;;;8.93;6.43;;;;;;;;;;4987169;28;20041;-62
2023/08/06 02:15:01;;;;;;;8.85;7.22;;;;;;;;;;4981740;28;20049;-63
2023/08/06 02:17:27;;;;;;;8.10;5.85;;;;;;;;;;4964187;28;20046;-63
2023/08/06 02:19:53;;;;;;;8.77;6.00;;;;;;;;;;4979687;28;20050;-62
2023/08/06 02:22:19;;;;;;;8.85;6.57;;;;;;;;;;4950983;28;20049;-63
2023/08/06 02:24:51;;;;;;;8.97;6.33;;;;;;;;;;4981134;28;20061;-63
2023/08/06 02:27:17;;;;;;;8.00;6.22;;;;;;;;;;4959221;28;20074;-63
2023/08/06 02:29:44;;;;;;;8.43;6.38;;;;;;;;;;4982738;28;20046;-62
2023/08/06 02:32:10;;;;;;;9.38;6.18;;;;;;;;;;4992229;28;20042;-62
2023/08/06 02:34:36;;;;;;;7.30;5.35;;;;;;;;;;4981895;28;20474;-62
2023/08/06 02:37:03;;;;;;;7.18;5.93;;;;;;;;;;4983498;28;20125;-62
2023/08/06 02:39:29;;;;;;;7.45;5.85;;;;;;;;;;4983301;28;20042;-62
2023/08/06 02:41:55;;;;;;;9.73;6.28;;;;;;;;;;4977249;28;20447;-62
2023/08/06 02:44:21;;;;;;;7.13;5.50;;;;;;;;;;4983194;28;20694;-62
2023/08/06 02:46:47;;;;;;;9.05;5.68;;;;;;;;;;4983451;28;20057;-62
2023/08/06 02:49:14;;;;;;;7.07;5.28;;;;;;;;;;4968739;28;20125;-62
2023/08/06 02:51:40;;;;;;;7.88;5.07;;;;;;;;;;4969835;28;20065;-62
2023/08/06 02:54:06;;;;;;;12.02;5.93;;;;;;;;;;4990184;28;20485;-62
2023/08/06 02:56:32;;;;;;;6.65;5.13;;;;;;;;;;4985712;28;20609;-62
2023/08/06 02:58:58;;;;;;;8.57;5.50;;;;;;;;;;4985044;28;20050;-62
2023/08/06 03:01:26;;;;;;;6.95;6.13;;;;;;;;;;4986824;28;20038;-62
2023/08/06 03:03:52;;;;;;;10.10;7.38;;;;;;;;;;4968054;28;20046;-62
2023/08/06 03:06:18;;;;;;;11.85;6.45;;;;;;;;;;4984667;28;20046;-62
2023/08/06 03:08:45;;;;;;;7.68;6.15;;;;;;;;;;4998044;28;20519;-62
2023/08/06 03:11:11;;;;;;;7.00;5.40;;;;;;;;;;4986497;28;20133;-62
2023/08/06 03:13:37;;;;;;;8.75;6.00;;;;;;;;;;4988053;28;20461;-61
2023/08/06 03:16:03;;;;;;;12.18;6.18;;;;;;;;;;4969055;28;20070;-62
2023/08/06 03:18:29;;;;;;;11.77;6.28;;;;;;;;;;4989647;28;20480;-62
2023/08/06 03:20:56;;;;;;;9.60;6.50;;;;;;;;;;4989421;28;20046;-62
2023/08/06 03:23:22;;;;;;;10.90;6.82;;;;;;;;;;4987969;28;20060;-62
2023/08/06 03:25:49;;;;;;;8.50;6.03;;;;;;;;;;4988066;28;20045;-62
2023/08/06 03:28:15;;;;;;;9.38;6.22;;;;;;;;;;4984684;28;20038;-62
2023/08/06 03:30:41;;;;;;;8.20;6.57;;;;;;;;;;4987058;28;20489;-62
2023/08/06 03:33:07;;;;;;;10.07;6.53;;;;;;;;;;4968522;28;20457;-62
2023/08/06 03:35:33;;;;;;;10.98;6.78;;;;;;;;;;4985832;28;20050;-63
2023/08/06 03:37:59;;;;;;;11.43;6.45;;;;;;;;;;4983113;28;20081;-62
2023/08/06 03:40:25;;;;;;;10.02;7.75;;;;;;;;;;4986738;28;20046;-62
2023/08/06 03:42:52;;;;;;;10.15;7.30;;;;;;;;;;4982867;28;20034;-62
2023/08/06 03:45:18;;;;;;;8.88;7.40;;;;;;;;;;4986219;28;20096;-62
2023/08/06 03:47:44;;;;;;;10.50;7.07;;;;;;;;;;4986901;28;20042;-61
2023/08/06 03:50:10;;;;;;;9.07;6.75;;;;;;;;;;4985701;28;20089;-62
2023/08/06 03:52:36;;;;;;;9.63;6.78;;;;;;;;;;4986395;28;20061;-62
2023/08/06 03:55:02;;;;;;;10.05;7.40;;;;;;;;;;4985963;28;20498;-62
2023/08/06 03:57:29;;;;;;;9.43;6.22;;;;;;;;;;4985546;28;20038;-62
2023/08/06 03:59:55;;;;;;;10.38;7.43;;;;;;;;;;4985324;28;20068;-65
2023/08/06 04:02:21;;;;;;;9.48;7.03;;;;;;;;;;4986437;28;20067;-62
2023/08/06 04:04:49;;;;;;;8.60;6.68;;;;;;;;;;4987243;28;20054;-62
2023/08/06 04:07:15;;;;;;;10.15;7.07;;;;;;;;;;4964381;28;20046;-64
2023/08/06 04:09:55;;;;;;;8.50;7.60;;;;;;;;;;4985925;28;20517;-62
2023/08/06 04:12:21;;;;;;;13.25;7.70;;;;;;;;;;4986169;28;20188;-64
2023/08/06 04:14:47;;;;;;;8.90;6.35;;;;;;;;;;4966709;28;20044;-62
2023/08/06 04:17:14;;;;;;;9.20;7.57;;;;;;;;;;4987227;28;20052;-62
2023/08/06 04:19:40;;;;;;;9.52;7.68;;;;;;;;;;4985274;28;20049;-62
2023/08/06 04:22:06;;;;;;;10.38;7.05;;;;;;;;;;4985926;28;20064;-63
2023/08/06 04:24:32;;;;;;;10.63;7.13;;;;;;;;;;4977980;28;20034;-62
2023/08/06 04:26:59;;;;;;;10.15;6.97;;;;;;;;;;4985508;28;20045;-62
2023/08/06 04:29:25;;;;;;;11.23;7.63;;;;;;;;;;4985330;28;20058;-63
2023/08/06 04:31:51;;;;;;;10.57;7.20;;;;;;;;;;4961654;28;20043;-62
2023/08/06 04:34:17;;;;;;;13.43;7.75;;;;;;;;;;4991826;28;20327;-62
2023/08/06 04:36:43;;;;;;;8.40;6.82;;;;;;;;;;4985715;28;20142;-62
2023/08/06 04:39:09;;;;;;;10.52;7.15;;;;;;;;;;4985376;28;20508;-62
2023/08/06 04:41:35;;;;;;;8.25;6.82;;;;;;;;;;4985722;28;20085;-63
2023/08/06 04:44:01;;;;;;;12.70;8.43;;;;;;;;;;4994459;28;20056;-62
2023/08/06 04:46:28;;;;;;;10.20;7.28;;;;;;;;;;4976580;28;20482;-62
2023/08/06 04:48:54;;;;;;;9.45;7.85;;;;;;;;;;4988569;28;20046;-62
2023/08/06 04:51:20;;;;;;;8.68;7.40;;;;;;;;;;4993706;28;20049;-62
2023/08/06 04:53:46;;;;;;;10.25;7.63;;;;;;;;;;4999240;28;20377;-62
2023/08/06 04:56:12;;;;;;;9.57;7.55;;;;;;;;;;4994907;28;20416;-62
2023/08/06 04:58:38;;;;;;;10.23;7.05;;;;;;;;;;4985150;28;20549;-62
2023/08/06 05:01:04;;;;;;;9.00;7.22;;;;;;;;;;4952332;28;20130;-63
2023/08/06 05:03:30;;;;;;;11.57;7.90;;;;;;;;;;4985150;28;20530;-63
2023/08/06 05:05:56;;;;;;;10.38;7.80;;;;;;;;;;4965740;28;20042;-63
2023/08/06 05:08:23;;;;;;;10.70;8.23;;;;;;;;;;4990285;28;20414;-62
2023/08/06 05:10:49;;;;;;;8.90;7.70;;;;;;;;;;4984143;28;20126;-63
2023/08/06 05:13:15;;;;;;;10.60;7.55;;;;;;;;;;4984936;28;20510;-64
2023/08/06 05:15:42;;;;;;;9.05;7.43;;;;;;;;;;4948902;28;20064;-62
2023/08/06 05:18:09;;;;;;;12.32;8.32;;;;;;;;;;4985605;28;20065;-61
2023/08/06 05:20:42;;;;;;;13.50;7.20;;;;;;;;;;4984394;28;20058;-61
2023/08/06 05:23:09;;;;;;;12.07;7.85;;;;;;;;;;4984931;28;20034;-61
2023/08/06 05:25:35;;;;;;;10.30;7.65;;;;;;;;;;4983651;28;20039;-61
2023/08/06 05:28:02;;;;;;;11.25;7.72;;;;;;;;;;4988563;28;20139;-61
2023/08/06 05:30:28;;;;;;;10.10;7.55;;;;;;;;;;4984627;28;20046;-61
2023/08/06 05:32:55;;;;;;;8.73;7.40;;;;;;;;;;4996828;28;20048;-62
2023/08/06 05:35:22;;;;;;;12.80;8.15;;;;;;;;;;4991112;28;20038;-64
2023/08/06 05:37:48;;;;;;;12.95;8.45;;;;;;;;;;4966204;28;20137;-61
2023/08/06 05:40:14;;;;;;;12.98;8.00;;;;;;;;;;4984299;28;20062;-61
2023/08/06 05:42:41;;;;;;;9.70;7.47;;;;;;;;;;4988566;28;20124;-61
2023/08/06 05:45:07;;;;;;;9.50;7.18;;;;;;;;;;4983955;28;20045;-62
2023/08/06 05:47:33;;;;;;;8.23;6.78;;;;;;;;;;4984921;28;20532;-61
2023/08/06 05:50:00;;;;;;;8.63;6.78;;;;;;;;;;4984266;28;20505;-61
2023/08/06 05:52:26;;;;;;;9.68;7.28;;;;;;;;;;4965954;28;20537;-61
2023/08/06 05:54:52;;;;;;;12.65;7.75;;;;;;;;;;4972477;28;20038;-62
2023/08/06 05:57:18;;;;;;;8.77;7.72;;;;;;;;;;4984158;28;20184;-62
2023/08/06 05:59:44;;;;;;;10.00;8.25;;;;;;;;;;4980285;28;20052;-62
2023/08/06 06:02:11;;;;;;;10.10;7.50;;;;;;;;;;4984294;28;20073;-62
2023/08/06 06:04:37;;;;;;;9.75;7.53;;;;;;;;;;4966783;28;20042;-61
2023/08/06 06:07:04;;;;;;;10.23;7.68;;;;;;;;;;4983486;28;20069;-61
2023/08/06 06:09:30;;;;;;;8.43;7.32;;;;;;;;;;4984483;28;20096;-61
2023/08/06 06:11:56;;;;;;;8.15;7.28;;;;;;;;;;4986851;28;20046;-62
2023/08/06 06:14:22;;;;;;;11.43;7.63;;;;;;;;;;4983691;28;20057;-62
2023/08/06 06:16:48;;;;;;;8.93;7.35;;;;;;;;;;4985806;28;20050;-62
2023/08/06 06:19:14;;;;;;;9.43;7.28;;;;;;;;;;4961697;28;20124;-62
2023/08/06 06:21:40;;;;;;;9.30;7.00;;;;;;;;;;4979462;28;20829;-62
2023/08/06 06:24:08;;;;;;;9.68;7.90;;;;;;;;;;4986217;28;20096;-62
2023/08/06 06:26:34;;;;;;;12.45;7.35;;;;;;;;;;4994633;28;20081;-61
2023/08/06 06:29:00;;;;;;;10.65;7.20;;;;;;;;;;4995923;28;20078;-61
2023/08/06 06:31:26;;;;;;;7.85;7.03;;;;;;;;;;4994645;28;20069;-62
2023/08/06 06:33:54;;;;;;;9.10;6.78;;;;;;;;;;4989949;28;20042;-62
2023/08/06 06:36:20;;;;;;;10.05;7.30;;;;;;;;;;4988825;28;20046;-62
2023/08/06 06:38:47;;;;;;;14.15;8.32;;;;;;;;;;4990122;28;20034;-62
2023/08/06 06:41:13;;;;;;;12.80;7.93;;;;;;;;;;4991058;28;20336;-63
2023/08/06 06:43:40;;;;;;;9.90;7.13;;;;;;;;;;4986900;28;20482;-63
2023/08/06 06:46:06;;;;;;;10.18;7.35;;;;;;;;;;4986486;28;20092;-62
2023/08/06 06:48:33;;;;;;;8.65;6.35;;;;;;;;;;4979795;28;20035;-63
2023/08/06 06:51:00;;;;;;;9.65;6.68;;;;;;;;;;4969917;28;20045;-63
2023/08/06 06:53:29;;;;;;;8.43;6.90;;;;;;;;;;4990691;28;20026;-62
2023/08/06 06:55:56;;;;;;;8.85;7.00;;;;;;;;;;4989078;28;20042;-62
2023/08/06 06:58:23;;;;;;;16.50;8.05;;;;;;;;;;4987335;28;20141;-62
2023/08/06 07:00:49;;;;;;;6.93;5.53;;;;;;;;;;4968236;28;20081;-62
2023/08/06 07:03:15;;;;;;;9.45;5.75;;;;;;;;;;4990311;28;20041;-63
2023/08/06 07:05:43;;;;;;;8.65;5.25;;;16.50;99.90;;;;;;4987899;28;20046;-62
2023/08/06 07:08:08;;;;;;;7.65;4.68;;;16.50;99.90;;;;;;4990094;28;20042;-62
2023/08/06 07:10:34;;;;;;;8.40;7.07;;;16.50;99.90;;;;;;4971026;28;20050;-62
2023/08/06 07:13:00;;;;;;;7.30;5.03;;;16.50;99.90;;;;;;4988760;28;20046;-62
2023/08/06 07:15:26;;;;;;;7.13;5.35;;;16.50;99.90;;;;;;4982597;28;20429;-62
2023/08/06 07:17:51;;;;;;;6.28;4.97;;;16.50;99.90;;;;;;4987889;28;20494;-62
2023/08/06 07:20:17;;;;;;;6.07;4.30;;;16.60;99.90;;;;;;4983725;28;20602;-62
2023/08/06 07:22:44;;;;;;;5.97;4.88;;;16.60;99.90;;;;;;4988975;28;20047;-62
2023/08/06 07:25:10;;;;;;;6.82;5.55;;;16.60;99.90;;;;;;4950774;28;21420;-62
2023/08/06 07:27:35;;;;;;;6.85;4.85;;;16.60;99.90;;;;;;4986826;28;20038;-62
2023/08/06 07:30:01;;;;;;;7.43;4.80;;;16.70;99.90;;;;;;4983749;28;20042;-62
2023/08/06 07:32:30;;;;;;;8.63;4.70;;;16.70;99.90;;;;;;4983536;28;20049;-62
2023/08/06 07:34:59;;;;;;;5.50;3.78;;;16.70;99.90;;;;;;4968172;28;20050;-62
2023/08/06 07:37:25;;;;;;;4.82;3.97;;;16.80;99.90;;;;;;4986104;28;20061;-62
2023/08/06 07:39:51;;;;;;;6.53;4.28;;;16.80;99.90;;;;;;4983937;28;20561;-62
2023/08/06 07:42:20;;;;;;;6.38;4.55;;;16.80;99.90;;;;;;4986124;28;20040;-62
2023/08/06 07:44:52;;;;;;;6.30;4.75;;;16.90;99.90;;;;;;4984652;28;20042;-62
2023/08/06 07:47:18;;;;;;;6.45;4.00;;;16.90;99.90;;;;;;4986648;28;20089;-62
2023/08/06 07:49:44;;;;;;;5.38;4.25;;;16.90;99.90;;;;;;4985651;28;20046;-62
2023/08/06 07:52:11;;;;;;;4.70;3.50;;;16.90;99.90;;;;;;4974468;28;20601;-62
2023/08/06 07:54:37;;;;;;;4.45;3.78;;;17.00;99.90;;;;;;4985928;28;20177;-62
2023/08/06 07:57:03;;;;;;;5.25;3.55;;;17.00;99.90;;;;;;4967358;28;20548;-62
2023/08/06 07:59:28;;;;;;;5.38;4.35;;;17.00;99.90;;;;;;4985456;28;20253;-62
2023/08/06 08:01:57;;;;;;;5.63;4.68;;;17.10;99.90;;;;;;4981934;28;20061;-62
2023/08/06 08:04:24;;;;;;;5.30;3.55;;;17.10;99.90;;;;;;4985067;28;20046;-62
2023/08/06 08:06:50;;;;;;;4.53;4.07;;;17.20;99.90;;;;;;4984838;28;20080;-61
2023/08/06 08:09:16;;;;;;;5.50;3.53;;;17.10;99.90;;;;;;4985262;28;20046;-62
2023/08/06 08:11:42;;;;;;;5.43;3.30;;;17.20;99.90;;;;;;4985421;28;20045;-62
2023/08/06 08:14:08;;;;;;;6.03;4.15;;;17.30;99.90;;;;;;4985166;28;20164;-62
2023/08/06 08:16:34;;;;;;;5.40;4.28;;;17.30;99.90;;;;;;4985114;28;20042;-62
2023/08/06 08:18:59;;;;;;;4.47;3.33;;;17.40;99.90;;;;;;4967608;28;20074;-61
2023/08/06 08:21:25;;;;;;;4.93;3.10;;;17.40;99.90;;;;;;4983655;28;20552;-61
2023/08/06 08:23:52;;;;;;;5.28;3.22;;;17.40;99.90;;;;;;4964084;28;20485;-61
2023/08/06 08:26:17;;;;;;;4.72;3.58;;;17.50;99.90;;;;;;4985007;28;20034;-62
2023/08/06 08:28:43;;;;;;;8.75;4.00;;;17.50;99.90;;;;;;4985597;28;20094;-62
2023/08/06 08:31:11;;;;;;;6.05;3.90;;;17.60;99.90;;;;;;4995973;28;20042;-61
2023/08/06 08:33:40;;;;;;;5.13;3.42;;;17.60;99.90;;;;;;4985173;28;20050;-62
2023/08/06 08:36:05;;;;;;;4.88;3.42;;;17.70;99.90;;;;;;4965873;28;20061;-62
2023/08/06 08:38:31;;;;;;;4.47;3.55;;;17.70;99.90;;;;;;4984951;28;20042;-62
2023/08/06 08:40:57;;;;;;;5.47;3.67;;;17.80;99.90;;;;;;4984965;28;20132;-62
2023/08/06 08:43:24;;;;;;;6.53;4.13;;;17.90;99.90;;;;;;4984468;28;20466;-62
2023/08/06 08:45:58;;;;;;;4.32;3.38;;;18.00;99.90;;;;;;4984182;28;20031;-62
2023/08/06 08:48:24;;;;;;;4.70;3.25;;;18.00;99.90;;;;;;4985092;28;20038;-62
2023/08/06 08:50:50;;;;;;;5.60;3.60;;;18.10;99.90;;;;;;4983522;28;20060;-62
2023/08/06 08:53:17;;;;;;;6.32;3.92;;;18.10;99.90;;;;;;4984705;28;20493;-62
2023/08/06 08:55:49;;;;;;;5.32;3.70;;;18.20;99.90;;;;;;4984967;28;20918;-63
2023/08/06 08:58:15;;;;;;;3.90;3.10;;;18.30;99.90;;;;;;4965606;28;20185;-62
2023/08/06 09:00:42;;;;;;;4.55;3.03;;;18.30;99.90;;;;;;4984848;28;20061;-62
2023/08/06 09:03:09;;;;;;;4.05;3.08;;;18.40;99.90;;;;;;4966102;28;20034;-62
2023/08/06 09:05:35;;;;;;;6.75;2.83;;;18.50;99.90;;;;;;4966403;28;20048;-62
2023/08/06 09:08:03;;;;;;;6.85;3.50;;;18.50;99.90;;;;;;4949884;28;20041;-62
2023/08/06 09:10:30;;;;;;;3.90;2.85;;;18.60;99.90;;;;;;4983523;28;20581;-62
2023/08/06 09:12:57;;;;;;;4.28;3.00;;;18.60;99.90;;;;;;4984931;28;20161;-62
2023/08/06 09:15:27;;;;;;;5.00;3.17;;;18.70;99.90;;;;;;4983264;28;20160;-62
2023/08/06 09:17:54;;;;;;;4.88;2.78;;;18.80;99.90;;;;;;4964611;28;20066;-62
2023/08/06 09:20:20;;;;;;;4.78;3.30;;;18.80;99.90;;;;;;4983307;28;20049;-62
2023/08/06 09:22:47;;;;;;;4.65;3.03;;;18.80;99.90;;;;;;4985138;28;20042;-62
2023/08/06 09:25:22;;;;;;;4.78;2.53;;;18.90;99.90;;;;;;4984418;28;20042;-62
2023/08/06 09:27:48;;;;;;;3.58;2.40;;;19.00;99.90;;;;;;4988120;28;20061;-62
2023/08/06 09:30:30;;;;;;;4.25;3.20;;;19.00;99.90;;;;;;4984518;28;20042;-62
2023/08/06 09:32:56;;;;;;;3.90;2.50;;;19.10;99.90;;;;;;4987971;28;20527;-62
2023/08/06 09:35:22;;;;;;;3.28;2.50;;;19.10;99.90;;;;;;4988175;28;20034;-62
2023/08/06 09:37:48;;;;;;;3.40;2.67;;;19.20;99.90;;;;;;4978488;28;20034;-62
2023/08/06 09:40:31;;;;;;;5.30;3.08;;;19.20;99.90;;;;;;4988090;28;20122;-62
2023/08/06 09:42:58;;;;;;;3.90;2.50;;;19.30;99.90;;;;;;4999271;28;20057;-62
2023/08/06 09:45:32;;;;;;;3.92;2.72;;;19.30;99.90;;;;;;4985944;28;20050;-62
2023/08/06 09:47:59;;;;;;;3.85;2.55;;;19.40;99.90;;;;;;4986922;28;20080;-62
2023/08/06 09:50:30;;;;;;;3.92;2.35;;;19.50;99.90;;;;;;4986858;28;20058;-62
2023/08/06 09:52:56;;;;;;;3.60;2.20;;;19.50;99.90;;;;;;4986721;28;20042;-62
2023/08/06 09:55:24;;;;;;;2.90;2.30;;;;;;;;;;4970226;28;20042;-61
2023/08/06 09:57:51;;;;;;;2.72;1.88;;;;;;;;;;4990778;28;20132;-62
2023/08/06 10:00:18;;;;;;;5.22;2.30;;;;;;;;;;4989061;28;20117;-62
2023/08/06 10:02:44;;;;;;;3.70;2.45;;;;;;;;;;4990743;28;20062;-62
2023/08/06 10:05:10;;;;;;;3.35;2.15;;;;;;;;;;4989533;28;20042;-62
2023/08/06 10:07:39;;;;;;;3.20;2.35;;;;;;;;;;4989833;28;20049;-62
2023/08/06 10:10:06;;;;;;;2.55;1.80;;;;;;;;;;4989947;28;20051;-62
2023/08/06 10:12:39;;;;;;;3.92;2.38;;;;;;;;;;4990724;28;20077;-62
2023/08/06 10:15:07;;;;;;;3.17;2.22;;;;;;;;;;4989447;28;20062;-62
2023/08/06 10:17:34;;;;;;;7.55;2.78;;;;;;;;;;4962735;28;20042;-62
2023/08/06 10:20:01;;;;;;;2.80;1.75;;;;;;;;;;4982579;28;20042;-62
2023/08/06 10:22:27;;;;;;;4.32;2.55;;;;;;;;;;4987930;28;20058;-63
2023/08/06 10:24:55;;;;;;;2.78;1.90;;;;;;;;;;4988034;28;20339;-62
2023/08/06 10:27:33;;;;;;;3.33;2.15;;;;;;;;;;4985888;28;20120;-63
2023/08/06 10:30:18;;;;;;;8.48;2.40;;;;;;;;;;4988775;28;20096;-62
2023/08/06 10:32:49;;;;;;;3.35;1.65;;;;;;;;;;4991712;28;20050;-62
2023/08/06 10:35:44;;;;;;;2.55;1.63;;;;;;;;;;4986777;28;20050;-62
2023/08/06 10:38:10;;;;;;;6.65;2.00;;;;;;;;;;4974446;28;20591;-62
2023/08/06 10:40:37;;;;;;;3.65;2.20;;;;;;;;;;4988670;28;20433;-63
2023/08/06 10:43:06;;;;;;;3.38;2.13;;;;;;;;;;4970509;28;20528;-62
2023/08/06 10:45:35;;;;;;;4.25;2.00;;;;;;;;;;4965423;28;20042;-62
2023/08/06 10:48:01;;;;;;;2.92;2.30;;;;;;;;;;4989681;28;20478;-62
2023/08/06 10:50:27;;;;;;;4.72;2.03;;;;;;;;;;4970451;28;20491;-62
2023/08/06 10:52:53;;;;;;;5.55;2.47;;;;;;;;;;4981996;28;20053;-63
2023/08/06 10:55:24;;;;;;;4.00;2.40;;;;;;;;;;4976454;28;20289;-62
2023/08/06 10:57:50;;;;;;;3.30;2.60;;;;;;;;;;4984094;28;20517;-62
2023/08/06 11:00:16;;;;;;;5.65;2.95;;;;;;;;;;4985053;28;20493;-62
2023/08/06 11:02:43;;;;;;;6.28;2.75;;;;;;;;;;4982956;28;20121;-62
2023/08/06 11:05:10;;;;;;;3.95;2.60;;;;;;;;;;4965109;28;20423;-62
2023/08/06 11:07:37;;;;;;;4.93;2.35;;;;;;;;;;4984334;28;20038;-62
2023/08/06 11:10:04;;;;;;;3.50;2.33;;;;;;;;;;4985756;28;20046;-62
2023/08/06 11:12:30;;;;;;;6.20;2.75;;;;;;;;;;4968246;28;20046;-63
2023/08/06 11:14:57;;;;;;;5.85;2.92;;;;;;;;;;4984407;28;20481;-62
2023/08/06 11:17:23;;;;;;;3.35;2.25;;;;;;;;;;4967804;28;20529;-62
2023/08/06 11:19:50;;;;;;;5.63;3.15;;;;;;;;;;4987251;28;20053;-62
2023/08/06 11:22:16;;;;;;;5.10;2.65;;;;;;;;;;4967248;28;20447;-62
2023/08/06 11:24:42;;;;;;;5.35;2.50;;;;;;;;;;4982565;28;20049;-63
2023/08/06 11:27:13;;;;;;;3.60;2.90;;;;;;;;;;4986954;28;20408;-62
2023/08/06 11:29:39;;;;;;;4.53;3.05;;;;;;;;;;4984369;28;20100;-62
2023/08/06 11:32:05;;;;;;;4.32;2.78;;;;;;;;;;4984996;28;20050;-62
2023/08/06 11:34:32;;;;;;;5.18;2.95;;;;;;;;;;4985435;28;20046;-62
2023/08/06 11:36:58;;;;;;;4.60;2.80;;;;;;;;;;4984097;28;20165;-62
2023/08/06 11:39:24;;;;;;;4.20;2.70;;;;;;;;;;4985394;28;20047;-62
2023/08/06 11:41:51;;;;;;;3.72;2.75;;;;;;;;;;4976018;28;20049;-62
2023/08/06 11:44:19;;;;;;;5.20;2.70;;;;;;;;;;4984693;28;20096;-62
2023/08/06 11:46:55;;;;;;;3.45;2.60;;;;;;;;;;4981783;28;20047;-62
2023/08/06 11:49:43;;;;;;;3.95;2.60;;;;;;;;;;4982976;28;20502;-62
2023/08/06 11:52:20;;;;;;;4.13;2.53;;;;;;;;;;4984802;28;20043;-62
2023/08/06 11:55:07;;;;;;;3.50;2.50;;;;;;;;;;4985869;28;20086;-62
2023/08/06 11:57:37;;;;;;;4.35;3.00;;;;;;;;;;4986283;28;20082;-61
2023/08/06 12:00:05;;;;;;;4.85;2.60;;;;;;;;;;4985920;28;20038;-63
2023/08/06 12:02:34;;;;;;;8.98;3.20;;;19.50;99.90;;;;;;4988644;28;20508;-62
2023/08/06 12:05:28;;;;;;;2.85;2.05;;;21.10;99.90;;;;;;4982766;28;20703;-63
2023/08/06 12:07:58;;;;;;;3.67;2.53;;;21.20;99.90;;;;;;4985861;28;20041;-62
2023/08/06 12:10:25;;;;;;;3.63;2.50;;;;;;;;;;4987355;28;20125;-63
2023/08/06 12:12:51;;;;;;;2.78;2.17;;;;;;;;;;4988289;28;20046;-64
2023/08/06 12:15:18;;;;;;;2.70;2.20;;;21.40;99.90;;;;;;4984191;28;20131;-61
2023/08/06 12:17:44;;;;;;;3.25;2.55;;;;;;;;;;4988044;28;20113;-62
2023/08/06 12:20:10;;;;;;;3.47;2.53;;;21.70;99.90;;;;;;4987400;28;20047;-61
2023/08/06 12:22:38;;;;;;;5.50;3.08;;;;;;;;;;4986531;28;20120;-62
2023/08/06 12:25:13;;;;;;;3.40;2.53;;;;;;;;;;4985791;28;20042;-61
2023/08/06 12:27:41;;;;;;;3.45;2.35;;;;;;;;;;4984686;28;20301;-61
2023/08/06 12:30:07;;;;;;;3.78;2.60;;;21.80;99.90;;;;;;4985396;28;20576;-61
2023/08/06 12:32:33;;;;;;;3.88;2.58;;;22.00;99.90;;;;;;4997086;28;20121;-61
2023/08/06 12:35:00;;;;;;;4.07;2.70;;;22.00;99.90;;;;;;5004494;28;20041;-61
2023/08/06 12:37:26;;;;;;;5.95;3.38;;;22.00;99.90;;;;;;4988674;28;20097;-62
2023/08/06 12:39:52;;;;;;;4.40;2.70;;;21.90;99.90;;;;;;4990425;28;20038;-61
2023/08/06 12:42:18;;;;;;;5.43;2.58;;;22.00;99.90;;;;;;4986483;28;20730;-62
2023/08/06 12:44:43;;;;;;;3.55;2.88;;;22.10;99.90;;;;;;4987207;28;20049;-62
2023/08/06 12:47:09;;;;;;;4.93;2.78;;;22.10;99.90;;;;;;4986287;28;20109;-62
2023/08/06 12:49:35;;;;;;;4.32;2.58;;;22.30;99.90;;;;;;4939746;28;20042;-61
2023/08/06 12:52:02;;;;;;;3.00;2.30;;;22.30;99.90;;;;;;4985660;28;20499;-62
2023/08/06 12:54:28;;;;;;;3.63;2.50;;;22.40;99.90;;;;;;4969888;28;20512;-62
2023/08/06 12:56:54;;;;;;;4.25;2.63;;;22.50;99.90;;;;;;4985566;28;20397;-62
2023/08/06 12:59:20;;;;;;;3.20;2.15;;;22.50;99.90;;;;;;4973691;28;20049;-62
2023/08/06 13:01:46;;;;;;;3.35;2.40;;;;;;;;;;4986210;28;20096;-62
2023/08/06 13:04:13;;;;;;;3.08;1.95;;;;;;;;;;4987676;28;20070;-61
2023/08/06 13:06:39;;;;;;;4.72;2.80;;;;;;;;;;4966434;28;20562;-62
2023/08/06 13:09:09;;;;;;;3.35;2.50;;;;;;;;;;4987448;28;20082;-62
2023/08/06 13:11:37;;;;;;;3.22;2.38;;;22.60;99.90;;;;;;4987263;28;20148;-62
2023/08/06 13:14:10;;;;;;;4.90;2.88;;;22.80;99.90;;;;;;4993705;28;20556;-62
2023/08/06 13:16:37;;;;;;;3.88;2.55;;;;;;;;;;4988040;28;20092;-62
2023/08/06 13:19:04;;;;;;;3.25;2.15;;;;;;;;;;4988021;28;20085;-62
2023/08/06 13:21:34;;;;;;;3.88;2.60;;;;;;;;;;4974274;28;20030;-62
2023/08/06 13:24:01;;;;;;;3.83;2.40;;;;;;;;;;4985121;28;20112;-62
2023/08/06 13:26:28;;;;;;;3.38;1.98;;;22.90;99.90;;;;;;4990896;28;20038;-62
2023/08/06 13:28:54;;;;;;;5.18;2.75;;;;;;;;;;4981704;28;20088;-62
2023/08/06 13:31:20;;;;;;;3.70;2.10;;;;;;;;;;4974416;28;20036;-62
2023/08/06 13:33:48;;;;;;;4.63;2.20;;;;;;;;;;4986664;28;20112;-62
2023/08/06 13:36:14;;;;;;;3.38;2.33;;;;;;;;;;4990219;28;20037;-61
2023/08/06 13:38:40;;;;;;;3.35;2.38;;;;;;;;;;4978088;28;20457;-62
2023/08/06 13:41:06;;;;;;;3.95;2.35;;;;;;;;;;4992926;28;20480;-62
2023/08/06 13:43:32;;;;;;;4.10;1.77;;;;;;;;;;4988318;28;20345;-62
2023/08/06 13:45:59;;;;;;;4.13;2.42;;;;;;;;;;4985247;28;20047;-62
2023/08/06 13:48:25;;;;;;;2.80;2.20;;;;;;;;;;4983347;28;20039;-62
2023/08/06 13:50:51;;;;;;;2.95;2.13;;;;;;;;;;4990527;28;20076;-62
2023/08/06 13:53:17;;;;;;;3.33;2.13;;;;;;;;;;4994263;28;20050;-62
2023/08/06 13:55:43;;;;;;;3.08;2.00;;;;;;;;;;4986086;28;20516;-62
2023/08/06 13:58:09;;;;;;;3.58;1.88;;;;;;;;;;4989651;28;20066;-62
2023/08/06 14:00:38;;;;;;;3.75;2.20;;;;;;;;;;4997551;28;20524;-62
2023/08/06 14:03:05;;;;;;;3.03;2.22;;;;;;;;;;4998278;28;20563;-62
2023/08/06 14:05:31;;;;;;;3.60;2.55;;;;;;;;;;4973408;28;20136;-62
2023/08/06 14:07:57;;;;;;;3.97;2.45;;;;;;;;;;4989060;28;20050;-62